Terminal Aerodrome Forecast
Issued by NWS Sterling, VA

Current Version | Previous Version | Graphics & Text | Print | Product List | Glossary On
Versions: 1 2 3 4 5 6 7 8 9 10 11 12 13 14 15 16 17 18 19 20
000
FTUS41 KLWX 242000 AAA
TAFIAD
TAF AMD
KIAD 242052Z 2421/2524 31010KT P6SM SCT200
     FM250000 31006KT P6SM FEW150 SCT200
     FM252100 25007KT P6SM FEW040=

USA.gov is the U.S. government's official web portal to all federal, state and local government web resources and services.